sensor_id;sensor_type;location;lat;lon;timestamp;P1;durP1;ratioP1;P2;durP2;ratioP2
76986;SDS011;65922;50.086;8.598;2024-03-23T00:51:15;4.7;;;10.2;;
76986;SDS011;65922;50.086;8.598;2024-03-23T00:54:15;5.8;;;10.6;;
76986;SDS011;65922;50.086;8.598;2024-03-23T00:55:15;5.1;;;10.4;;
76986;SDS011;65922;50.086;8.598;2024-03-23T00:56:15;4.5;;;11;;
76986;SDS011;65922;50.086;8.598;2024-03-23T00:57:15;5.9;;;10.7;;
76986;SDS011;65922;50.086;8.598;2024-03-23T00:58:15;6.2;;;10.5;;
76986;SDS011;65922;50.086;8.598;2024-03-23T00:59:15;6.7;;;12.8;;
76986;SDS011;65922;50.086;8.598;2024-03-23T01:00:15;6.2;;;12;;
76986;SDS011;65922;50.086;8.598;2024-03-23T01:01:16;5.7;;;8.9;;
76986;SDS011;65922;50.086;8.598;2024-03-23T01:02:15;5.8;;;9.9;;
76986;SDS011;65922;50.086;8.598;2024-03-23T01:03:15;6.2;;;10.5;;
76986;SDS011;65922;50.086;8.598;2024-03-23T01:04:15;6.8;;;13;;
76986;SDS011;65922;50.086;8.598;2024-03-23T01:05:15;7.2;;;15.3;;
76986;SDS011;65922;50.086;8.598;2024-03-23T01:06:15;4.8;;;10.3;;
76986;SDS011;65922;50.086;8.598;2024-03-23T01:07:15;5.4;;;12.5;;
76986;SDS011;65922;50.086;8.598;2024-03-23T01:08:15;5.2;;;10.7;;
76986;SDS011;65922;50.086;8.598;2024-03-23T01:09:15;4.7;;;8.9;;
76986;SDS011;65922;50.086;8.598;2024-03-23T01:10:15;4.3;;;6.4;;
76986;SDS011;65922;50.086;8.598;2024-03-23T01:11:15;4.3;;;14.6;;
76986;SDS011;65922;50.086;8.598;2024-03-23T01:12:15;4.7;;;11.2;;
76986;SDS011;65922;50.086;8.598;2024-03-23T01:13:15;5.7;;;11.4;;
76986;SDS011;65922;50.086;8.598;2024-03-23T01:14:15;6.1;;;12.5;;
76986;SDS011;65922;50.086;8.598;2024-03-23T01:15:15;4.8;;;8.7;;
76986;SDS011;65922;50.086;8.598;2024-03-23T01:16:15;4.7;;;9.6;;
76986;SDS011;65922;50.086;8.598;2024-03-23T01:17:15;5.3;;;11.5;;
76986;SDS011;65922;50.086;8.598;2024-03-23T01:18:15;5.8;;;11.5;;
76986;SDS011;65922;50.086;8.598;2024-03-23T01:19:15;6.5;;;10.4;;
76986;SDS011;65922;50.086;8.598;2024-03-23T01:20:15;5.4;;;9.9;;
76986;SDS011;65922;50.086;8.598;2024-03-23T01:21:15;7.3;;;13.4;;
76986;SDS011;65922;50.086;8.598;2024-03-23T01:22:15;6;;;12;;
76986;SDS011;65922;50.086;8.598;2024-03-23T01:23:15;5.5;;;12.6;;
76986;SDS011;65922;50.086;8.598;2024-03-23T01:24:15;5.2;;;7.5;;
76986;SDS011;65922;50.086;8.598;2024-03-23T01:25:15;5.6;;;12.1;;
76986;SDS011;65922;50.086;8.598;2024-03-23T01:26:15;5.3;;;8.9;;
76986;SDS011;65922;50.086;8.598;2024-03-23T01:27:15;5;;;8.3;;
76986;SDS011;65922;50.086;8.598;2024-03-23T01:28:15;5.4;;;10.1;;
76986;SDS011;65922;50.086;8.598;2024-03-23T01:29:15;5.9;;;12.4;;
76986;SDS011;65922;50.086;8.598;2024-03-23T01:30:15;4.1;;;10;;
76986;SDS011;65922;50.086;8.598;2024-03-23T01:31:15;4.8;;;9.5;;
76986;SDS011;65922;50.086;8.598;2024-03-23T01:32:16;5.3;;;11.4;;
76986;SDS011;65922;50.086;8.598;2024-03-23T01:33:15;3.8;;;10.8;;
76986;SDS011;65922;50.086;8.598;2024-03-23T01:34:15;4.3;;;7.4;;
76986;SDS011;65922;50.086;8.598;2024-03-23T01:35:15;3.7;;;6.9;;
76986;SDS011;65922;50.086;8.598;2024-03-23T01:36:15;4.3;;;9.2;;
76986;SDS011;65922;50.086;8.598;2024-03-23T01:37:15;4.3;;;8.5;;
76986;SDS011;65922;50.086;8.598;2024-03-23T01:38:15;4.3;;;9.5;;
76986;SDS011;65922;50.086;8.598;2024-03-23T01:39:15;5.2;;;11.2;;
76986;SDS011;65922;50.086;8.598;2024-03-23T01:40:17;4.1;;;6.8;;
76986;SDS011;65922;50.086;8.598;2024-03-23T01:41:15;4.6;;;11.2;;
76986;SDS011;65922;50.086;8.598;2024-03-23T01:42:15;4.2;;;7.7;;
76986;SDS011;65922;50.086;8.598;2024-03-23T01:43:15;4.9;;;7.7;;
76986;SDS011;65922;50.086;8.598;2024-03-23T01:44:15;3.6;;;9.5;;
76986;SDS011;65922;50.086;8.598;2024-03-23T01:45:15;4.5;;;9.3;;
76986;SDS011;65922;50.086;8.598;2024-03-23T01:46:15;4.3;;;10.8;;
76986;SDS011;65922;50.086;8.598;2024-03-23T01:47:15;4.3;;;6.6;;
76986;SDS011;65922;50.086;8.598;2024-03-23T01:48:15;3.7;;;10.4;;
76986;SDS011;65922;50.086;8.598;2024-03-23T01:49:15;3.5;;;9.7;;
76986;SDS011;65922;50.086;8.598;2024-03-23T01:50:15;3.9;;;7.7;;
76986;SDS011;65922;50.086;8.598;2024-03-23T01:51:15;3.2;;;5.1;;
76986;SDS011;65922;50.086;8.598;2024-03-23T01:52:15;6;;;10.6;;
76986;SDS011;65922;50.086;8.598;2024-03-23T01:53:15;4.6;;;7.4;;
76986;SDS011;65922;50.086;8.598;2024-03-23T01:54:15;5.4;;;11.5;;
76986;SDS011;65922;50.086;8.598;2024-03-23T01:55:15;4.1;;;11;;
76986;SDS011;65922;50.086;8.598;2024-03-23T01:56:15;4.5;;;10.5;;
76986;SDS011;65922;50.086;8.598;2024-03-23T01:57:16;5.3;;;13.3;;
76986;SDS011;65922;50.086;8.598;2024-03-23T01:58:15;5.1;;;11.9;;
76986;SDS011;65922;50.086;8.598;2024-03-23T01:59:15;4.3;;;12.4;;
76986;SDS011;65922;50.086;8.598;2024-03-23T02:00:15;3.9;;;7.6;;
76986;SDS011;65922;50.086;8.598;2024-03-23T02:01:15;4.3;;;11.5;;
76986;SDS011;65922;50.086;8.598;2024-03-23T02:02:15;3.4;;;9.2;;
76986;SDS011;65922;50.086;8.598;2024-03-23T02:03:22;3.4;;;6.9;;
76986;SDS011;65922;50.086;8.598;2024-03-23T02:04:15;4.1;;;6;;
76986;SDS011;65922;50.086;8.598;2024-03-23T02:05:15;3;;;5.6;;
76986;SDS011;65922;50.086;8.598;2024-03-23T02:06:15;3.8;;;11.6;;
76986;SDS011;65922;50.086;8.598;2024-03-23T02:07:15;4.7;;;9.8;;
76986;SDS011;65922;50.086;8.598;2024-03-23T02:08:15;5;;;10.1;;
76986;SDS011;65922;50.086;8.598;2024-03-23T02:09:15;4.3;;;9.7;;
76986;SDS011;65922;50.086;8.598;2024-03-23T02:10:15;5.2;;;14.2;;
76986;SDS011;65922;50.086;8.598;2024-03-23T02:11:15;4.5;;;10.9;;
76986;SDS011;65922;50.086;8.598;2024-03-23T02:12:15;3.9;;;11.3;;
76986;SDS011;65922;50.086;8.598;2024-03-23T02:13:15;4.2;;;8.5;;
76986;SDS011;65922;50.086;8.598;2024-03-23T02:14:15;3.9;;;9.8;;
76986;SDS011;65922;50.086;8.598;2024-03-23T02:15:15;4;;;8.6;;
76986;SDS011;65922;50.086;8.598;2024-03-23T02:16:15;4.5;;;7.5;;
76986;SDS011;65922;50.086;8.598;2024-03-23T02:17:15;4.8;;;11.1;;
76986;SDS011;65922;50.086;8.598;2024-03-23T02:18:15;5.4;;;9.1;;
76986;SDS011;65922;50.086;8.598;2024-03-23T02:19:15;4.4;;;6.9;;
76986;SDS011;65922;50.086;8.598;2024-03-23T02:20:15;4.8;;;10.3;;
76986;SDS011;65922;50.086;8.598;2024-03-23T02:21:15;5.4;;;11.9;;
76986;SDS011;65922;50.086;8.598;2024-03-23T02:22:15;4.4;;;6.3;;
76986;SDS011;65922;50.086;8.598;2024-03-23T02:23:15;4.8;;;11.5;;
76986;SDS011;65922;50.086;8.598;2024-03-23T02:24:15;4.6;;;8.4;;
76986;SDS011;65922;50.086;8.598;2024-03-23T02:25:15;5;;;7.7;;
76986;SDS011;65922;50.086;8.598;2024-03-23T02:26:15;4.5;;;8.4;;
76986;SDS011;65922;50.086;8.598;2024-03-23T02:27:15;4.5;;;9.5;;
76986;SDS011;65922;50.086;8.598;2024-03-23T02:28:15;4.8;;;11.1;;
76986;SDS011;65922;50.086;8.598;2024-03-23T02:29:15;4.4;;;8.8;;
76986;SDS011;65922;50.086;8.598;2024-03-23T02:30:15;6.9;;;14.3;;
76986;SDS011;65922;50.086;8.598;2024-03-23T02:31:15;5.4;;;12.8;;
76986;SDS011;65922;50.086;8.598;2024-03-23T02:32:15;5.1;;;11.8;;
76986;SDS011;65922;50.086;8.598;2024-03-23T02:33:15;5.4;;;12.5;;
76986;SDS011;65922;50.086;8.598;2024-03-23T02:34:15;5.7;;;9.2;;
76986;SDS011;65922;50.086;8.598;2024-03-23T02:35:15;5.3;;;9.8;;
76986;SDS011;65922;50.086;8.598;2024-03-23T02:36:15;5;;;10;;
76986;SDS011;65922;50.086;8.598;2024-03-23T02:37:15;4.8;;;10.1;;
76986;SDS011;65922;50.086;8.598;2024-03-23T02:38:15;6.4;;;12;;
76986;SDS011;65922;50.086;8.598;2024-03-23T02:39:15;4.6;;;8.8;;
76986;SDS011;65922;50.086;8.598;2024-03-23T02:40:15;5.7;;;11.2;;
76986;SDS011;65922;50.086;8.598;2024-03-23T02:41:15;4.8;;;10;;
76986;SDS011;65922;50.086;8.598;2024-03-23T02:42:15;6.2;;;12.4;;
76986;SDS011;65922;50.086;8.598;2024-03-23T02:43:15;6;;;8.3;;
76986;SDS011;65922;50.086;8.598;2024-03-23T02:44:15;6.6;;;16.1;;
76986;SDS011;65922;50.086;8.598;2024-03-23T02:45:15;5.7;;;19.7;;
76986;SDS011;65922;50.086;8.598;2024-03-23T02:46:15;5.6;;;10.2;;
76986;SDS011;65922;50.086;8.598;2024-03-23T02:47:15;5.1;;;11.4;;
76986;SDS011;65922;50.086;8.598;2024-03-23T02:48:15;5.6;;;13.8;;
76986;SDS011;65922;50.086;8.598;2024-03-23T02:49:15;5.2;;;10.1;;
76986;SDS011;65922;50.086;8.598;2024-03-23T02:50:15;5.1;;;10.4;;
76986;SDS011;65922;50.086;8.598;2024-03-23T02:51:15;5;;;10.4;;
76986;SDS011;65922;50.086;8.598;2024-03-23T02:52:25;5.6;;;15.8;;
76986;SDS011;65922;50.086;8.598;2024-03-23T02:53:15;6.1;;;11.3;;
76986;SDS011;65922;50.086;8.598;2024-03-23T02:54:15;4.9;;;10.5;;
76986;SDS011;65922;50.086;8.598;2024-03-23T02:55:15;4.8;;;8.3;;
76986;SDS011;65922;50.086;8.598;2024-03-23T02:56:15;5.5;;;9;;
76986;SDS011;65922;50.086;8.598;2024-03-23T02:57:15;4.4;;;10.3;;
76986;SDS011;65922;50.086;8.598;2024-03-23T02:58:15;4.9;;;13.6;;
76986;SDS011;65922;50.086;8.598;2024-03-23T02:59:15;4.9;;;9.5;;
76986;SDS011;65922;50.086;8.598;2024-03-23T03:00:15;5.4;;;11.9;;
76986;SDS011;65922;50.086;8.598;2024-03-23T03:01:15;6.7;;;12.9;;
76986;SDS011;65922;50.086;8.598;2024-03-23T03:02:16;5.1;;;9.1;;
76986;SDS011;65922;50.086;8.598;2024-03-23T03:03:15;7.7;;;15.3;;
76986;SDS011;65922;50.086;8.598;2024-03-23T03:04:15;5.3;;;10.9;;
76986;SDS011;65922;50.086;8.598;2024-03-23T03:05:15;5.5;;;9.7;;
76986;SDS011;65922;50.086;8.598;2024-03-23T03:06:22;5.4;;;9.8;;
76986;SDS011;65922;50.086;8.598;2024-03-23T03:07:15;5.3;;;9.8;;
76986;SDS011;65922;50.086;8.598;2024-03-23T03:08:15;5.6;;;8.6;;
76986;SDS011;65922;50.086;8.598;2024-03-23T03:09:15;5.4;;;10;;
76986;SDS011;65922;50.086;8.598;2024-03-23T03:10:15;7.1;;;11.3;;
76986;SDS011;65922;50.086;8.598;2024-03-23T03:11:15;6.1;;;9.8;;
76986;SDS011;65922;50.086;8.598;2024-03-23T03:12:15;5.6;;;10.1;;
76986;SDS011;65922;50.086;8.598;2024-03-23T03:13:15;5.8;;;11.9;;
76986;SDS011;65922;50.086;8.598;2024-03-23T03:14:15;5.7;;;13.4;;
76986;SDS011;65922;50.086;8.598;2024-03-23T03:15:15;6.6;;;13.9;;
76986;SDS011;65922;50.086;8.598;2024-03-23T03:16:15;8.2;;;14.8;;
76986;SDS011;65922;50.086;8.598;2024-03-23T03:17:15;5.8;;;10.5;;
76986;SDS011;65922;50.086;8.598;2024-03-23T03:18:15;6.9;;;11.1;;
76986;SDS011;65922;50.086;8.598;2024-03-23T03:19:19;5.4;;;11.7;;
76986;SDS011;65922;50.086;8.598;2024-03-23T03:20:15;6.2;;;13.1;;
76986;SDS011;65922;50.086;8.598;2024-03-23T03:21:25;5.6;;;10.3;;
76986;SDS011;65922;50.086;8.598;2024-03-23T03:22:15;5.9;;;16.3;;
76986;SDS011;65922;50.086;8.598;2024-03-23T03:23:15;5.3;;;8.5;;
76986;SDS011;65922;50.086;8.598;2024-03-23T03:24:15;6.3;;;13.6;;
76986;SDS011;65922;50.086;8.598;2024-03-23T03:25:15;5.8;;;13.1;;
76986;SDS011;65922;50.086;8.598;2024-03-23T03:26:15;5.6;;;16.5;;
76986;SDS011;65922;50.086;8.598;2024-03-23T03:27:15;5.4;;;10.9;;
76986;SDS011;65922;50.086;8.598;2024-03-23T03:28:15;5;;;10.4;;
76986;SDS011;65922;50.086;8.598;2024-03-23T03:29:15;6.4;;;13.7;;
76986;SDS011;65922;50.086;8.598;2024-03-23T03:30:15;6.2;;;9.9;;
76986;SDS011;65922;50.086;8.598;2024-03-23T03:31:15;5.6;;;11.8;;
76986;SDS011;65922;50.086;8.598;2024-03-23T03:32:15;5.5;;;11;;
76986;SDS011;65922;50.086;8.598;2024-03-23T03:33:15;5.2;;;13.9;;
76986;SDS011;65922;50.086;8.598;2024-03-23T03:34:15;5.3;;;14.9;;
76986;SDS011;65922;50.086;8.598;2024-03-23T03:35:15;6.3;;;14.2;;
76986;SDS011;65922;50.086;8.598;2024-03-23T03:36:15;6.4;;;14.2;;
76986;SDS011;65922;50.086;8.598;2024-03-23T03:37:15;6.9;;;14.6;;
76986;SDS011;65922;50.086;8.598;2024-03-23T03:38:15;6.1;;;14.7;;
76986;SDS011;65922;50.086;8.598;2024-03-23T03:39:15;9.1;;;21;;
76986;SDS011;65922;50.086;8.598;2024-03-23T03:40:15;6.8;;;14.5;;
76986;SDS011;65922;50.086;8.598;2024-03-23T03:41:15;6.9;;;17.8;;
76986;SDS011;65922;50.086;8.598;2024-03-23T03:42:15;6.7;;;15.9;;
76986;SDS011;65922;50.086;8.598;2024-03-23T03:43:15;5.5;;;15.4;;
76986;SDS011;65922;50.086;8.598;2024-03-23T03:44:16;6.5;;;18.1;;
76986;SDS011;65922;50.086;8.598;2024-03-23T03:45:15;6.1;;;12.4;;
76986;SDS011;65922;50.086;8.598;2024-03-23T03:46:15;6.5;;;12.6;;
76986;SDS011;65922;50.086;8.598;2024-03-23T03:47:15;7;;;21.4;;
76986;SDS011;65922;50.086;8.598;2024-03-23T03:48:15;7.6;;;19.3;;
76986;SDS011;65922;50.086;8.598;2024-03-23T03:49:15;6;;;13.7;;
76986;SDS011;65922;50.086;8.598;2024-03-23T03:50:15;6.7;;;13.1;;
76986;SDS011;65922;50.086;8.598;2024-03-23T03:51:15;7.2;;;15.4;;
76986;SDS011;65922;50.086;8.598;2024-03-23T03:52:15;6;;;14;;
76986;SDS011;65922;50.086;8.598;2024-03-23T03:53:15;6.4;;;14.5;;
76986;SDS011;65922;50.086;8.598;2024-03-23T03:54:15;6.3;;;12.8;;
76986;SDS011;65922;50.086;8.598;2024-03-23T03:55:15;7.2;;;16.6;;
76986;SDS011;65922;50.086;8.598;2024-03-23T03:56:15;8.1;;;20.3;;
76986;SDS011;65922;50.086;8.598;2024-03-23T03:57:15;6.7;;;15.4;;
76986;SDS011;65922;50.086;8.598;2024-03-23T03:58:15;8.2;;;20.9;;
76986;SDS011;65922;50.086;8.598;2024-03-23T03:59:15;6.8;;;13;;
76986;SDS011;65922;50.086;8.598;2024-03-23T04:00:15;7.2;;;16.7;;
76986;SDS011;65922;50.086;8.598;2024-03-23T04:01:15;8.3;;;22.9;;
76986;SDS011;65922;50.086;8.598;2024-03-23T04:02:15;8.8;;;19.6;;
76986;SDS011;65922;50.086;8.598;2024-03-23T04:03:15;7;;;14.1;;
76986;SDS011;65922;50.086;8.598;2024-03-23T04:04:15;9;;;22.8;;
76986;SDS011;65922;50.086;8.598;2024-03-23T04:05:15;8.8;;;26.7;;
76986;SDS011;65922;50.086;8.598;2024-03-23T04:06:18;9.5;;;20.9;;
76986;SDS011;65922;50.086;8.598;2024-03-23T04:07:15;8.4;;;21.9;;
76986;SDS011;65922;50.086;8.598;2024-03-23T04:08:15;8.7;;;23.4;;
76986;SDS011;65922;50.086;8.598;2024-03-23T04:09:15;10.2;;;19.2;;
76986;SDS011;65922;50.086;8.598;2024-03-23T04:10:15;8.1;;;20.2;;
76986;SDS011;65922;50.086;8.598;2024-03-23T04:11:15;7.7;;;24.4;;
76986;SDS011;65922;50.086;8.598;2024-03-23T04:12:35;6.8;;;18.4;;
76986;SDS011;65922;50.086;8.598;2024-03-23T04:13:16;8.3;;;19.8;;
76986;SDS011;65922;50.086;8.598;2024-03-23T04:14:15;11.1;;;27;;
76986;SDS011;65922;50.086;8.598;2024-03-23T04:15:15;8.5;;;25.9;;
76986;SDS011;65922;50.086;8.598;2024-03-23T04:16:24;7.5;;;22.3;;
76986;SDS011;65922;50.086;8.598;2024-03-23T04:17:15;6.7;;;16.7;;
76986;SDS011;65922;50.086;8.598;2024-03-23T04:18:15;6.3;;;15.4;;
76986;SDS011;65922;50.086;8.598;2024-03-23T04:19:15;6.6;;;17.2;;
76986;SDS011;65922;50.086;8.598;2024-03-23T04:20:15;6.7;;;14.8;;
76986;SDS011;65922;50.086;8.598;2024-03-23T04:21:15;4.1;;;11.6;;
76986;SDS011;65922;50.086;8.598;2024-03-23T04:22:17;2;;;5;;
76986;SDS011;65922;50.086;8.598;2024-03-23T04:23:15;2.7;;;6.6;;
76986;SDS011;65922;50.086;8.598;2024-03-23T04:24:15;1.4;;;5;;
76986;SDS011;65922;50.086;8.598;2024-03-23T04:25:15;0.5;;;1.9;;
76986;SDS011;65922;50.086;8.598;2024-03-23T04:26:15;0.3;;;4.3;;
76986;SDS011;65922;50.086;8.598;2024-03-23T04:27:16;0;;;0.9;;
76986;SDS011;65922;50.086;8.598;2024-03-23T04:28:15;0;;;0.5;;
76986;SDS011;65922;50.086;8.598;2024-03-23T04:29:15;0;;;0.3;;
76986;SDS011;65922;50.086;8.598;2024-03-23T04:30:15;0.1;;;0.8;;
76986;SDS011;65922;50.086;8.598;2024-03-23T04:31:15;0;;;0.1;;
76986;SDS011;65922;50.086;8.598;2024-03-23T04:32:15;0.1;;;0.2;;
76986;SDS011;65922;50.086;8.598;2024-03-23T04:33:15;0;;;0.2;;
76986;SDS011;65922;50.086;8.598;2024-03-23T04:34:15;0;;;0.1;;
76986;SDS011;65922;50.086;8.598;2024-03-23T04:35:15;0;;;0;;
76986;SDS011;65922;50.086;8.598;2024-03-23T04:36:15;0;;;0.5;;
76986;SDS011;65922;50.086;8.598;2024-03-23T04:37:15;0;;;0;;
76986;SDS011;65922;50.086;8.598;2024-03-23T04:38:15;0;;;0.2;;
76986;SDS011;65922;50.086;8.598;2024-03-23T04:39:15;0;;;0.4;;
76986;SDS011;65922;50.086;8.598;2024-03-23T04:40:15;0;;;0.4;;
76986;SDS011;65922;50.086;8.598;2024-03-23T04:41:15;0;;;0.1;;
76986;SDS011;65922;50.086;8.598;2024-03-23T04:42:16;0;;;0.9;;
76986;SDS011;65922;50.086;8.598;2024-03-23T04:43:15;0;;;0.2;;
76986;SDS011;65922;50.086;8.598;2024-03-23T04:44:15;0;;;1.4;;
76986;SDS011;65922;50.086;8.598;2024-03-23T04:45:16;0;;;0;;
76986;SDS011;65922;50.086;8.598;2024-03-23T04:46:15;0;;;0.2;;
76986;SDS011;65922;50.086;8.598;2024-03-23T04:47:15;0;;;0.3;;
76986;SDS011;65922;50.086;8.598;2024-03-23T04:48:15;0;;;0.6;;
76986;SDS011;65922;50.086;8.598;2024-03-23T04:49:15;0;;;0.2;;
76986;SDS011;65922;50.086;8.598;2024-03-23T04:50:15;0.2;;;0.7;;
76986;SDS011;65922;50.086;8.598;2024-03-23T04:51:20;0;;;0.1;;
76986;SDS011;65922;50.086;8.598;2024-03-23T04:52:15;0;;;0.1;;
76986;SDS011;65922;50.086;8.598;2024-03-23T04:53:15;0;;;0.3;;
76986;SDS011;65922;50.086;8.598;2024-03-23T04:54:15;0;;;0;;
76986;SDS011;65922;50.086;8.598;2024-03-23T04:55:15;0;;;0.6;;
76986;SDS011;65922;50.086;8.598;2024-03-23T04:56:16;0;;;0.2;;
76986;SDS011;65922;50.086;8.598;2024-03-23T04:57:15;0;;;0.1;;
76986;SDS011;65922;50.086;8.598;2024-03-23T04:58:15;0;;;0;;
76986;SDS011;65922;50.086;8.598;2024-03-23T04:59:15;0.2;;;0.2;;
76986;SDS011;65922;50.086;8.598;2024-03-23T05:00:15;0;;;0.3;;
76986;SDS011;65922;50.086;8.598;2024-03-23T05:01:15;0;;;0;;
76986;SDS011;65922;50.086;8.598;2024-03-23T05:02:15;0;;;0;;
76986;SDS011;65922;50.086;8.598;2024-03-23T05:03:15;0;;;0.2;;
76986;SDS011;65922;50.086;8.598;2024-03-23T05:04:15;0;;;0.4;;
76986;SDS011;65922;50.086;8.598;2024-03-23T05:05:15;0;;;0.2;;
76986;SDS011;65922;50.086;8.598;2024-03-23T05:06:15;0;;;0.4;;
76986;SDS011;65922;50.086;8.598;2024-03-23T05:07:15;0;;;1.5;;
76986;SDS011;65922;50.086;8.598;2024-03-23T05:08:15;0.1;;;3.7;;
76986;SDS011;65922;50.086;8.598;2024-03-23T05:09:15;0;;;0.2;;
76986;SDS011;65922;50.086;8.598;2024-03-23T05:10:15;0;;;3.3;;
76986;SDS011;65922;50.086;8.598;2024-03-23T05:11:15;0.1;;;3.9;;
76986;SDS011;65922;50.086;8.598;2024-03-23T05:12:15;0.4;;;1;;
76986;SDS011;65922;50.086;8.598;2024-03-23T05:13:16;0;;;0.8;;
76986;SDS011;65922;50.086;8.598;2024-03-23T05:14:15;0;;;0.3;;
76986;SDS011;65922;50.086;8.598;2024-03-23T05:15:15;0;;;0.1;;
76986;SDS011;65922;50.086;8.598;2024-03-23T05:16:15;0;;;1.3;;
76986;SDS011;65922;50.086;8.598;2024-03-23T05:17:15;0;;;0.4;;
76986;SDS011;65922;50.086;8.598;2024-03-23T05:18:15;0;;;0.1;;
76986;SDS011;65922;50.086;8.598;2024-03-23T05:19:15;0.1;;;2.9;;
76986;SDS011;65922;50.086;8.598;2024-03-23T05:20:15;0;;;0.7;;
76986;SDS011;65922;50.086;8.598;2024-03-23T05:21:15;0.2;;;0.9;;
76986;SDS011;65922;50.086;8.598;2024-03-23T05:22:15;0;;;0.7;;
76986;SDS011;65922;50.086;8.598;2024-03-23T05:23:15;0;;;0.6;;
76986;SDS011;65922;50.086;8.598;2024-03-23T05:24:15;0;;;0.1;;
76986;SDS011;65922;50.086;8.598;2024-03-23T05:25:15;0.3;;;2.9;;
76986;SDS011;65922;50.086;8.598;2024-03-23T05:26:15;0.3;;;0.7;;
76986;SDS011;65922;50.086;8.598;2024-03-23T05:27:15;0;;;0;;
76986;SDS011;65922;50.086;8.598;2024-03-23T05:28:15;0;;;0.3;;
76986;SDS011;65922;50.086;8.598;2024-03-23T05:29:15;0.3;;;0.8;;
76986;SDS011;65922;50.086;8.598;2024-03-23T05:30:15;0.1;;;0.7;;
76986;SDS011;65922;50.086;8.598;2024-03-23T05:31:22;0;;;0.2;;
76986;SDS011;65922;50.086;8.598;2024-03-23T05:32:15;0;;;0.3;;
76986;SDS011;65922;50.086;8.598;2024-03-23T05:33:15;0;;;0.3;;
76986;SDS011;65922;50.086;8.598;2024-03-23T05:34:15;0.1;;;3.9;;
76986;SDS011;65922;50.086;8.598;2024-03-23T05:35:15;0;;;0.2;;
76986;SDS011;65922;50.086;8.598;2024-03-23T05:36:15;0;;;0.1;;
76986;SDS011;65922;50.086;8.598;2024-03-23T05:37:15;0;;;0.4;;
76986;SDS011;65922;50.086;8.598;2024-03-23T05:38:15;0;;;0.8;;
76986;SDS011;65922;50.086;8.598;2024-03-23T05:39:15;0;;;0.6;;
76986;SDS011;65922;50.086;8.598;2024-03-23T05:40:15;0.4;;;3.2;;
76986;SDS011;65922;50.086;8.598;2024-03-23T05:41:15;0;;;0.8;;
76986;SDS011;65922;50.086;8.598;2024-03-23T05:42:15;0;;;0.4;;
76986;SDS011;65922;50.086;8.598;2024-03-23T05:43:15;0;;;0.6;;
76986;SDS011;65922;50.086;8.598;2024-03-23T05:44:15;0.1;;;0.2;;
76986;SDS011;65922;50.086;8.598;2024-03-23T05:45:15;0.1;;;2.4;;
76986;SDS011;65922;50.086;8.598;2024-03-23T05:46:15;0;;;0.2;;
76986;SDS011;65922;50.086;8.598;2024-03-23T05:47:15;0;;;0.3;;
76986;SDS011;65922;50.086;8.598;2024-03-23T05:48:15;0.2;;;2.8;;
76986;SDS011;65922;50.086;8.598;2024-03-23T05:49:15;0.2;;;4.5;;
76986;SDS011;65922;50.086;8.598;2024-03-23T05:50:15;0.1;;;0.7;;
76986;SDS011;65922;50.086;8.598;2024-03-23T05:51:15;0;;;1;;
76986;SDS011;65922;50.086;8.598;2024-03-23T05:52:15;0.1;;;1.3;;
76986;SDS011;65922;50.086;8.598;2024-03-23T05:53:15;0.2;;;2.7;;
76986;SDS011;65922;50.086;8.598;2024-03-23T05:54:15;0;;;0.8;;
76986;SDS011;65922;50.086;8.598;2024-03-23T05:55:15;0;;;0.5;;
76986;SDS011;65922;50.086;8.598;2024-03-23T05:56:15;0;;;0.5;;
76986;SDS011;65922;50.086;8.598;2024-03-23T05:57:15;0.1;;;1.8;;
76986;SDS011;65922;50.086;8.598;2024-03-23T05:58:15;0;;;0.1;;
76986;SDS011;65922;50.086;8.598;2024-03-23T05:59:15;0;;;0.3;;
76986;SDS011;65922;50.086;8.598;2024-03-23T06:00:15;0;;;0.4;;
76986;SDS011;65922;50.086;8.598;2024-03-23T06:01:15;0;;;0.4;;
76986;SDS011;65922;50.086;8.598;2024-03-23T06:02:15;0;;;0.6;;
76986;SDS011;65922;50.086;8.598;2024-03-23T06:03:15;0;;;0.2;;
76986;SDS011;65922;50.086;8.598;2024-03-23T06:04:15;0;;;0;;
76986;SDS011;65922;50.086;8.598;2024-03-23T06:05:15;0;;;0.3;;
76986;SDS011;65922;50.086;8.598;2024-03-23T06:06:15;0;;;0.1;;
76986;SDS011;65922;50.086;8.598;2024-03-23T06:07:15;0;;;0.2;;
76986;SDS011;65922;50.086;8.598;2024-03-23T06:08:15;0;;;0;;
76986;SDS011;65922;50.086;8.598;2024-03-23T06:09:15;0;;;0.2;;
76986;SDS011;65922;50.086;8.598;2024-03-23T06:10:15;0;;;0.3;;
76986;SDS011;65922;50.086;8.598;2024-03-23T06:11:15;0;;;0.1;;
76986;SDS011;65922;50.086;8.598;2024-03-23T06:12:15;2.2;;;2.2;;
76986;SDS011;65922;50.086;8.598;2024-03-23T06:13:15;0;;;0.9;;
76986;SDS011;65922;50.086;8.598;2024-03-23T06:14:15;0;;;1.6;;
76986;SDS011;65922;50.086;8.598;2024-03-23T06:15:15;0;;;0;;
76986;SDS011;65922;50.086;8.598;2024-03-23T06:16:15;0;;;1;;
76986;SDS011;65922;50.086;8.598;2024-03-23T06:17:15;0;;;0;;
76986;SDS011;65922;50.086;8.598;2024-03-23T06:18:15;0;;;0.3;;
76986;SDS011;65922;50.086;8.598;2024-03-23T06:19:15;0;;;0.5;;
76986;SDS011;65922;50.086;8.598;2024-03-23T06:20:16;0;;;0.1;;
76986;SDS011;65922;50.086;8.598;2024-03-23T06:21:15;0;;;0;;
76986;SDS011;65922;50.086;8.598;2024-03-23T06:22:15;0;;;0;;
76986;SDS011;65922;50.086;8.598;2024-03-23T06:23:15;0;;;0;;
76986;SDS011;65922;50.086;8.598;2024-03-23T06:24:15;0;;;1.1;;
76986;SDS011;65922;50.086;8.598;2024-03-23T06:25:15;0;;;0.1;;
76986;SDS011;65922;50.086;8.598;2024-03-23T06:26:15;0;;;0.2;;
76986;SDS011;65922;50.086;8.598;2024-03-23T06:27:15;0.1;;;0.4;;
76986;SDS011;65922;50.086;8.598;2024-03-23T06:28:15;0;;;0.4;;
76986;SDS011;65922;50.086;8.598;2024-03-23T06:29:15;0;;;0.2;;
76986;SDS011;65922;50.086;8.598;2024-03-23T06:30:15;0;;;0;;
76986;SDS011;65922;50.086;8.598;2024-03-23T06:31:15;0;;;0.2;;
76986;SDS011;65922;50.086;8.598;2024-03-23T06:32:15;0;;;0;;
76986;SDS011;65922;50.086;8.598;2024-03-23T06:33:15;0;;;0;;
76986;SDS011;65922;50.086;8.598;2024-03-23T06:34:15;0.1;;;3.3;;
76986;SDS011;65922;50.086;8.598;2024-03-23T06:35:15;0;;;0.1;;
76986;SDS011;65922;50.086;8.598;2024-03-23T06:36:15;0;;;0;;
76986;SDS011;65922;50.086;8.598;2024-03-23T06:37:15;0;;;0;;
76986;SDS011;65922;50.086;8.598;2024-03-23T06:38:15;0;;;0.1;;
76986;SDS011;65922;50.086;8.598;2024-03-23T06:39:15;0;;;0.4;;
76986;SDS011;65922;50.086;8.598;2024-03-23T06:40:15;0;;;0;;
76986;SDS011;65922;50.086;8.598;2024-03-23T06:41:16;0;;;0;;
76986;SDS011;65922;50.086;8.598;2024-03-23T06:42:15;0;;;0.1;;
76986;SDS011;65922;50.086;8.598;2024-03-23T06:43:15;0;;;0.6;;
76986;SDS011;65922;50.086;8.598;2024-03-23T06:44:15;0;;;0;;
76986;SDS011;65922;50.086;8.598;2024-03-23T06:45:16;0;;;0.5;;
76986;SDS011;65922;50.086;8.598;2024-03-23T06:46:15;0;;;0;;
76986;SDS011;65922;50.086;8.598;2024-03-23T06:47:15;0;;;0.3;;
76986;SDS011;65922;50.086;8.598;2024-03-23T06:48:15;0;;;0.6;;
76986;SDS011;65922;50.086;8.598;2024-03-23T06:49:15;0;;;0;;
76986;SDS011;65922;50.086;8.598;2024-03-23T06:50:15;0;;;0.2;;
76986;SDS011;65922;50.086;8.598;2024-03-23T06:51:15;0;;;0;;
76986;SDS011;65922;50.086;8.598;2024-03-23T06:52:15;0.2;;;2.6;;
76986;SDS011;65922;50.086;8.598;2024-03-23T06:53:15;0;;;0;;
76986;SDS011;65922;50.086;8.598;2024-03-23T06:54:16;0;;;0.6;;
76986;SDS011;65922;50.086;8.598;2024-03-23T06:55:15;0;;;0.2;;
76986;SDS011;65922;50.086;8.598;2024-03-23T06:56:15;0;;;0;;
76986;SDS011;65922;50.086;8.598;2024-03-23T06:57:15;0;;;0.1;;
76986;SDS011;65922;50.086;8.598;2024-03-23T06:58:15;0;;;0;;
76986;SDS011;65922;50.086;8.598;2024-03-23T06:59:15;0;;;0.4;;
76986;SDS011;65922;50.086;8.598;2024-03-23T07:00:16;0;;;0.1;;
76986;SDS011;65922;50.086;8.598;2024-03-23T07:01:15;0;;;0;;
76986;SDS011;65922;50.086;8.598;2024-03-23T07:02:25;0;;;0.2;;
76986;SDS011;65922;50.086;8.598;2024-03-23T07:03:16;0;;;2.5;;
76986;SDS011;65922;50.086;8.598;2024-03-23T07:04:15;0.1;;;1.1;;
76986;SDS011;65922;50.086;8.598;2024-03-23T07:05:15;0;;;1.7;;
76986;SDS011;65922;50.086;8.598;2024-03-23T07:06:15;0;;;1.9;;
76986;SDS011;65922;50.086;8.598;2024-03-23T07:07:15;0;;;0.3;;
76986;SDS011;65922;50.086;8.598;2024-03-23T07:08:15;0.6;;;2.2;;
76986;SDS011;65922;50.086;8.598;2024-03-23T07:09:16;0;;;2.4;;